Time;durP1;ratioP1;P1;durP2;ratioP2;P2;SDS_P1;SDS_P2;PMS_P1;PMS_P2;Temp;Humidity;BMP_temperature;BMP_pressure;BME280_temperature;BME280_humidity;BME280_pressure;Samples;Min_cycle;Max_cycle;Signal;HPM_P1;HPM_P2
2024/04/01 00:01:03;;;;;;;1.27;0.83;;;;;;;10.50;100.00;99324.28;5130465;28;20032;-39
2024/04/01 00:03:29;;;;;;;2.40;1.00;;;;;;;10.40;100.00;99318.88;5130701;28;20395;-40
2024/04/01 00:05:55;;;;;;;;;;;;;;;10.53;100.00;99329.16;5121999;28;20027;-40
2024/04/01 00:08:21;;;;;;;1.70;0.80;;;;;;;10.34;100.00;99322.63;5116754;28;19913;-40
2024/04/01 00:10:47;;;;;;;2.35;0.90;;;;;;;10.34;100.00;99319.09;5116950;28;20038;-40
2024/04/01 00:13:12;;;;;;;;;;;;;;;10.45;100.00;99321.59;5117473;28;20027;-39
2024/04/01 00:15:39;;;;;;;2.70;1.20;;;;;;;10.31;100.00;99321.28;5117070;28;20248;-39
2024/04/01 00:18:04;;;;;;;2.20;0.80;;;;;;;10.14;100.00;99299.03;5116493;28;20274;-39
2024/04/01 00:20:30;;;;;;;4.05;1.35;;;;;;;10.26;100.00;99320.44;5116518;28;20031;-39
2024/04/01 00:22:55;;;;;;;1.25;0.70;;;;;;;10.16;100.00;99318.50;5116386;28;20049;-39
2024/04/01 00:25:20;;;;;;;3.60;1.00;;;;;;;10.21;100.00;99315.81;5116636;28;20365;-39
2024/04/01 00:27:46;;;;;;;1.80;1.03;;;;;;;10.19;100.00;99319.84;5116554;28;20028;-39
2024/04/01 00:30:11;;;;;;;2.47;1.20;;;;;;;10.12;100.00;99322.81;5116591;28;20749;-39
2024/04/01 00:32:36;;;;;;;2.63;1.10;;;;;;;10.00;100.00;99304.13;5116504;28;20471;-39
2024/04/01 00:35:02;;;;;;;2.30;1.10;;;;;;;10.04;100.00;99324.13;5116642;28;20111;-39
2024/04/01 00:37:27;;;;;;;5.13;1.40;;;;;;;10.01;100.00;99321.97;5116674;28;20034;-39
2024/04/01 00:39:53;;;;;;;1.80;1.03;;;;;;;10.00;100.00;99320.34;5116156;28;20410;-39
2024/04/01 00:42:18;;;;;;;3.47;1.05;;;;;;;9.96;100.00;99308.44;5116048;28;20490;-39
2024/04/01 00:44:43;;;;;;;2.67;1.33;;;;;;;9.92;100.00;99301.94;5116287;28;20028;-39
2024/04/01 00:47:09;;;;;;;3.97;1.07;;;;;;;9.92;100.00;99296.53;5115728;28;20074;-39
2024/04/01 00:49:34;;;;;;;2.30;0.90;;;;;;;9.89;100.00;99288.94;5115703;28;20023;-39
2024/04/01 00:52:00;;;;;;;3.25;0.95;;;;;;;9.88;100.00;99289.22;5116641;28;20055;-39
2024/04/01 00:54:26;;;;;;;2.50;0.88;;;;;;;9.79;100.00;99275.41;5115464;28;20074;-38
2024/04/01 00:56:52;;;;;;;2.50;1.15;;;;;;;9.74;100.00;99268.09;5116012;28;20031;-39
2024/04/01 00:59:18;;;;;;;;;;;;;;;9.90;100.00;99274.38;5116115;28;20482;-38
2024/04/01 01:01:46;;;;;;;2.55;1.85;;;;;;;9.76;100.00;99273.22;5115553;28;19912;-39
2024/04/01 01:04:12;;;;;;;3.88;2.40;;;;;;;9.69;100.00;99259.19;5115693;28;20161;-39
2024/04/01 01:06:38;;;;;;;;;;;;;;;9.87;100.00;99276.81;5115692;28;20030;-39
2024/04/01 01:09:05;;;;;;;1.52;1.00;;;;;;;9.73;100.00;99266.50;5115230;28;19912;-39
2024/04/01 01:11:30;;;;;;;1.67;1.17;;;;;;;9.78;100.00;99268.41;5115382;28;20031;-39
2024/04/01 01:13:56;;;;;;;4.43;1.08;;;;;;;9.71;100.00;99267.81;5115905;28;20020;-39
2024/04/01 01:16:21;;;;;;;1.85;1.00;;;;;;;9.74;100.00;99283.50;5115000;28;20142;-39
2024/04/01 01:18:47;;;;;;;2.27;1.13;;;;;;;9.67;100.00;99282.94;5115013;28;20039;-39
2024/04/01 01:21:12;;;;;;;1.70;1.05;;;;;;;9.70;100.00;99287.78;5115019;28;20629;-39
2024/04/01 01:23:37;;;;;;;2.17;1.00;;;;;;;9.62;100.00;99275.63;5114950;28;20073;-39
2024/04/01 01:26:03;;;;;;;2.27;0.90;;;;;;;9.62;100.00;99289.13;5115462;28;20020;-39
2024/04/01 01:28:30;;;;;;;1.63;1.02;;;;;;;9.58;100.00;99296.09;5115681;28;20023;-39
2024/04/01 01:30:55;;;;;;;2.08;1.25;;;;;;;9.52;100.00;99281.78;5115363;28;20024;-39
2024/04/01 01:33:21;;;;;;;1.90;1.00;;;;;;;9.55;100.00;99296.63;5115179;28;20127;-39
2024/04/01 01:35:47;;;;;;;1.60;1.00;;;;;;;9.54;100.00;99290.41;5115063;28;20073;-39
2024/04/01 01:38:13;;;;;;;2.35;1.00;;;;;;;9.41;100.00;99271.19;5114646;28;20024;-39
2024/04/01 01:40:39;;;;;;;1.33;0.90;;;;;;;9.44;100.00;99290.38;5115418;28;20095;-39
2024/04/01 01:43:04;;;;;;;3.53;1.10;;;;;;;9.45;100.00;99288.47;5114810;28;20055;-39
2024/04/01 01:45:29;;;;;;;1.35;1.00;;;;;;;9.40;100.00;99286.56;5115655;28;20069;-39
2024/04/01 01:47:55;;;;;;;3.03;1.80;;;;;;;9.42;100.00;99291.69;5114472;28;20084;-40
2024/04/01 01:50:20;;;;;;;5.87;2.93;;;;;;;9.40;100.00;99297.34;5115246;28;20032;-39
2024/04/01 01:52:45;;;;;;;5.07;3.20;;;;;;;9.38;100.00;99299.50;5114665;28;20318;-39
2024/04/01 01:55:11;;;;;;;4.73;3.17;;;;;;;9.35;100.00;99297.31;5115343;28;20342;-40
2024/04/01 01:57:36;;;;;;;5.50;2.80;;;;;;;9.34;100.00;99298.41;5114636;28;20028;-39
2024/04/01 02:00:05;;;;;;;3.73;2.20;;;;;;;9.38;100.00;99293.31;5097111;28;20116;-40
2024/04/01 02:02:31;;;;;;;3.20;2.40;;;;;;;9.29;100.00;99292.97;5114675;28;20285;-40
2024/04/01 02:04:56;;;;;;;2.70;2.03;;;;;;;9.30;100.00;99289.19;5115315;28;20036;-40
2024/04/01 02:07:22;;;;;;;2.53;1.60;;;;;;;9.35;100.00;99307.31;5114181;28;20111;-40
2024/04/01 02:09:47;;;;;;;3.37;1.30;;;;;;;9.37;100.00;99305.97;5114627;28;20106;-40
2024/04/01 02:12:12;;;;;;;2.30;1.10;;;;;;;9.28;100.00;99297.56;5114265;28;20038;-40
2024/04/01 02:14:38;;;;;;;2.67;1.00;;;;;;;9.35;100.00;99313.50;5114505;28;20502;-40
2024/04/01 02:17:04;;;;;;;;;;;;;;;9.45;100.00;99310.06;5114939;28;20475;-40
2024/04/01 02:19:34;;;;;;;2.75;1.13;;;;;;;9.26;100.00;99315.06;5114816;28;19908;-38
2024/04/01 02:22:00;;;;;;;2.47;1.10;;;;;;;9.22;100.00;99309.38;5114457;28;20030;-38
2024/04/01 02:24:26;;;;;;;2.20;1.10;;;;;;;9.25;100.00;99302.66;5114135;28;20024;-39
2024/04/01 02:26:52;;;;;;;1.20;1.00;;;;;;;9.22;100.00;99313.94;5095896;28;20127;-39
2024/04/01 02:29:17;;;;;;;;;;;;;;;9.35;100.00;99310.81;5114292;28;20032;-39
2024/04/01 02:31:42;;;;;;;2.00;0.90;;;;;;;9.22;100.00;99319.34;5114812;28;19915;-39
2024/04/01 02:34:07;;;;;;;2.00;1.10;;;;;;;9.09;100.00;99290.94;5096680;28;20040;-39
2024/04/01 02:36:34;;;;;;;1.90;1.07;;;;;;;9.17;100.00;99308.53;5114205;28;20265;-39
2024/04/01 02:38:59;;;;;;;;;;;;;;;9.29;100.00;99312.66;5114681;28;20020;-39
2024/04/01 02:41:24;;;;;;;1.93;1.03;;;;;;;9.18;100.00;99310.16;5114440;28;20266;-39
2024/04/01 02:43:50;;;;;;;2.30;1.10;;;;;;;9.19;100.00;99309.91;5113855;28;20254;-39
2024/04/01 02:46:15;;;;;;;1.87;1.00;;;;;;;9.05;100.00;99302.50;5113852;28;20038;-39
2024/04/01 02:48:40;;;;;;;2.43;0.97;;;;;;;9.06;100.00;99304.94;5114398;28;20044;-39
2024/04/01 02:51:05;;;;;;;1.30;0.90;;;;;;;9.06;100.00;99306.81;5113669;28;20649;-39
2024/04/01 02:53:31;;;;;;;2.33;1.27;;;;;;;9.07;100.00;99308.44;5114149;28;20451;-39
2024/04/01 02:55:56;;;;;;;3.60;0.95;;;;;;;9.08;100.00;99292.03;5113513;28;20036;-39
2024/04/01 02:58:22;;;;;;;1.67;0.93;;;;;;;9.11;100.00;99294.19;5113603;28;20369;-39
2024/04/01 03:00:47;;;;;;;1.65;0.90;;;;;;;9.14;100.00;99292.88;5113495;28;20030;-39
2024/04/01 03:03:13;;;;;;;3.13;0.82;;;;;;;9.09;100.00;99284.75;5113999;28;20110;-39
2024/04/01 03:05:38;;;;;;;1.52;0.90;;;;;;;8.95;100.00;99281.69;5113408;28;20028;-39
2024/04/01 03:08:06;;;;;;;2.65;0.90;;;;;;;9.07;100.00;99301.16;5113665;28;20062;-39
2024/04/01 03:10:32;;;;;;;1.92;1.00;;;;;;;9.00;100.00;99293.31;5113590;28;20487;-39
2024/04/01 03:12:58;;;;;;;1.42;1.00;;;;;;;9.04;100.00;99296.31;5113543;28;20068;-39
2024/04/01 03:15:23;;;;;;;1.50;1.00;;;;;;;8.97;100.00;99295.69;5113828;28;20105;-39
2024/04/01 03:17:50;;;;;;;1.60;1.00;;;;;;;9.06;100.00;99298.75;5114041;28;20032;-39
2024/04/01 03:20:18;;;;;;;2.30;0.88;;;;;;;9.03;100.00;99308.97;5113807;28;20028;-39
2024/04/01 03:22:44;;;;;;;1.80;0.85;;;;;;;8.95;100.00;99285.19;5113974;28;20023;-39
2024/04/01 03:25:09;;;;;;;1.33;1.05;;;;;;;9.00;100.00;99292.50;5113191;28;20486;-39
2024/04/01 03:27:34;;;;;;;1.67;0.80;;;;;;;9.03;100.00;99292.00;5113451;28;20035;-39
2024/04/01 03:30:00;;;;;;;1.83;0.83;;;;;;;8.96;100.00;99292.19;5113962;28;20257;-39
2024/04/01 03:32:25;;;;;;;3.83;1.10;;;;;;;8.95;100.00;99285.19;5114188;28;20028;-39
2024/04/01 03:34:50;;;;;;;1.67;1.10;;;;;;;8.88;100.00;99276.50;5113734;28;20019;-39
2024/04/01 03:37:16;;;;;;;1.33;1.00;;;;;;;8.84;100.00;99285.38;5114171;28;20262;-39
2024/04/01 03:39:43;;;;;;;1.45;0.90;;;;;;;8.83;100.00;99289.94;5113687;28;20098;-39
2024/04/01 03:42:09;;;;;;;2.38;1.00;;;;;;;8.78;100.00;99276.41;5116888;28;20032;-39
2024/04/01 03:44:34;;;;;;;2.47;0.98;;;;;;;8.80;100.00;99274.28;5117735;28;20038;-39
2024/04/01 03:46:59;;;;;;;1.40;0.90;;;;;;;8.75;100.00;99276.94;5117063;28;20023;-39
2024/04/01 03:49:25;;;;;;;1.10;0.77;;;;;;;8.80;100.00;99285.06;5117140;28;20476;-39
2024/04/01 03:51:50;;;;;;;2.27;1.00;;;;;;;8.77;100.00;99285.56;5116994;28;20050;-39
2024/04/01 03:54:16;;;;;;;1.97;1.00;;;;;;;8.74;100.00;99283.41;5117162;28;20062;-39
2024/04/01 03:56:41;;;;;;;1.65;1.00;;;;;;;8.81;100.00;99296.66;5117428;28;20110;-39
2024/04/01 03:59:08;;;;;;;2.83;1.20;;;;;;;8.82;100.00;99299.09;5116986;28;20501;-39
2024/04/01 04:01:33;;;;;;;2.33;0.80;;;;;;;8.72;100.00;99290.91;5116832;28;20032;-39
2024/04/01 04:03:59;;;;;;;1.60;0.90;;;;;;;8.78;100.00;99287.19;5098551;28;20083;-39
2024/04/01 04:06:24;;;;;;;1.30;1.00;;;;;;;8.79;100.00;99302.31;5116472;28;20277;-39
2024/04/01 04:08:49;;;;;;;1.67;1.00;;;;;;;8.74;100.00;99304.97;5116740;28;20169;-39
2024/04/01 04:11:15;;;;;;;2.50;1.55;;;;;;;8.66;100.00;99294.66;5116354;28;20489;-39
2024/04/01 04:13:40;;;;;;;1.30;0.95;;;;;;;8.64;100.00;99297.59;5116291;28;20034;-39
2024/04/01 04:16:06;;;;;;;1.50;0.97;;;;;;;8.70;100.00;99298.47;5116622;28;20046;-39
2024/04/01 04:18:32;;;;;;;1.50;0.95;;;;;;;8.70;100.00;99298.47;5116864;28;20253;-39
2024/04/01 04:20:58;;;;;;;1.23;0.88;;;;;;;8.63;100.00;99289.75;5116467;28;20495;-39
2024/04/01 04:23:24;;;;;;;1.60;0.90;;;;;;;8.62;100.00;99288.13;5116407;28;20102;-39
2024/04/01 04:25:50;;;;;;;1.60;0.90;;;;;;;8.71;100.00;99298.19;5117287;28;20020;-40
2024/04/01 04:28:16;;;;;;;2.25;1.08;;;;;;;8.70;100.00;99306.53;5116372;28;20077;-40
2024/04/01 04:30:41;;;;;;;1.42;1.05;;;;;;;8.73;100.00;99311.41;5116634;28;20371;-40
2024/04/01 04:33:07;;;;;;;1.40;0.90;;;;;;;8.65;100.00;99299.22;5115942;28;20399;-40
2024/04/01 04:35:33;;;;;;;2.47;1.20;;;;;;;8.71;100.00;99308.97;5116874;28;20276;-40
2024/04/01 04:37:58;;;;;;;2.40;1.10;;;;;;;8.67;100.00;99307.84;5116104;28;20485;-39
2024/04/01 04:40:24;;;;;;;2.07;1.17;;;;;;;8.64;100.00;99302.19;5116591;28;20454;-38
2024/04/01 04:42:50;;;;;;;1.40;0.90;;;;;;;8.62;100.00;99297.03;5116735;28;20077;-39
2024/04/01 04:45:17;;;;;;;1.13;0.82;;;;;;;8.61;100.00;99294.59;5116240;28;20036;-39
2024/04/01 04:47:42;;;;;;;1.95;1.00;;;;;;;8.58;100.00;99304.00;5116110;28;20024;-39
2024/04/01 04:50:07;;;;;;;1.23;0.98;;;;;;;8.63;100.00;99322.09;5116771;28;20443;-39
2024/04/01 04:52:33;;;;;;;1.40;0.90;;;;;;;8.52;100.00;99303.13;5115504;28;20030;-39
2024/04/01 04:54:58;;;;;;;1.13;0.90;;;;;;;8.61;100.00;99305.38;5116297;28;20043;-39
2024/04/01 04:57:24;;;;;;;1.97;1.10;;;;;;;8.59;100.00;99310.19;5115796;28;20630;-39
2024/04/01 04:59:49;;;;;;;1.38;1.02;;;;;;;8.63;100.00;99311.31;5116679;28;20670;-39
2024/04/01 05:02:14;;;;;;;2.70;1.23;;;;;;;8.60;100.00;99306.44;5115730;28;20107;-39
2024/04/01 05:04:40;;;;;;;1.55;0.90;;;;;;;8.51;100.00;99287.22;5115473;28;20289;-39
2024/04/01 05:07:06;;;;;;;2.03;1.02;;;;;;;8.67;100.00;99310.53;5115681;28;20479;-39
2024/04/01 05:09:32;;;;;;;;;;;;;;;8.76;100.00;99309.00;5117184;28;20027;-39
2024/04/01 05:11:57;;;;;;;2.38;1.45;;;;;;;8.70;100.00;99306.53;5115467;28;19964;-39
2024/04/01 05:14:22;;;;;;;2.73;1.13;;;;;;;8.64;100.00;99307.56;5115625;28;20036;-39
2024/04/01 05:16:52;;;;;;;1.70;1.00;;;;;;;8.64;100.00;99312.97;5115402;28;20040;-39
2024/04/01 05:19:21;;;;;;;1.83;1.10;;;;;;;8.54;100.00;99297.50;5115918;28;20033;-39
2024/04/01 05:21:47;;;;;;;1.55;1.00;;;;;;;8.63;100.00;99305.91;5115276;28;20426;-39
2024/04/01 05:24:12;;;;;;;1.55;0.93;;;;;;;8.54;100.00;99304.75;5116135;28;20032;-39
2024/04/01 05:26:37;;;;;;;1.90;1.27;;;;;;;8.55;100.00;99309.91;5115547;28;20110;-39
2024/04/01 05:29:03;;;;;;;2.00;1.10;;;;;;;8.62;100.00;99307.00;5115499;28;20031;-39
2024/04/01 05:31:28;;;;;;;1.57;1.00;;;;;;;8.48;100.00;99293.94;5115344;28;20051;-39
2024/04/01 05:33:53;;;;;;;1.20;0.90;;;;;;;8.60;100.00;99325.31;5115029;28;20760;-39
2024/04/01 05:36:19;;;;;;;1.52;1.08;;;;;;;8.55;100.00;99325.25;5115573;28;20027;-39
2024/04/01 05:38:44;;;;;;;1.50;0.90;;;;;;;8.61;100.00;99326.94;5115269;28;20020;-39
2024/04/01 05:41:10;;;;;;;3.77;1.17;;;;;;;8.60;100.00;99322.63;5114866;28;20028;-39
2024/04/01 05:43:35;;;;;;;1.70;1.03;;;;;;;8.55;100.00;99326.06;5115259;28;20306;-39
2024/04/01 05:46:01;;;;;;;2.28;1.20;;;;;;;8.57;100.00;99337.41;5115614;28;20157;-39
2024/04/01 05:48:26;;;;;;;1.87;1.23;;;;;;;8.58;100.00;99343.59;5114938;28;20471;-39
2024/04/01 05:50:52;;;;;;;1.10;0.90;;;;;;;8.60;100.00;99341.47;5114867;28;20341;-39
2024/04/01 05:53:18;;;;;;;;;;;;;;;8.71;100.00;99346.69;5114538;28;20361;-39
2024/04/01 05:55:43;;;;;;;2.65;1.10;;;;;;;8.59;100.00;99347.91;5115441;28;20002;-39
2024/04/01 05:58:09;;;;;;;3.47;1.10;;;;;;;8.59;100.00;99350.59;5114628;28;20023;-39
2024/04/01 06:00:35;;;;;;;1.83;1.10;;;;;;;8.59;100.00;99347.91;5114691;28;20023;-39
2024/04/01 06:03:00;;;;;;;2.80;1.20;;;;;;;8.60;100.00;99361.16;5114342;28;20031;-39
2024/04/01 06:05:27;;;;;;;2.05;1.15;;;;;;;8.62;100.00;99366.28;5114529;28;20031;-39
2024/04/01 06:07:54;;;;;;;2.30;1.10;;;;;;;8.55;100.00;99360.28;5114478;28;20019;-39
2024/04/01 06:10:19;;;;;;;2.45;1.42;;;;;;;8.64;100.00;99362.28;5114739;28;20390;-39
2024/04/01 06:12:45;;;;;;;4.07;1.10;;;;;;;8.62;100.00;99361.69;5114336;28;20031;-39
2024/04/01 06:15:11;;;;;;;5.07;1.15;;;;;;;8.68;100.00;99367.94;5113982;28;20064;-39
2024/04/01 06:17:36;;;;;;;2.72;1.15;;;;;;;8.63;100.00;99357.13;5114344;28;20031;-39
2024/04/01 06:20:01;;;;;;;3.63;1.50;;;;;;;8.63;100.00;99351.72;5114526;28;20387;-39
2024/04/01 06:22:27;;;;;;;2.17;1.40;;;;;;;8.72;100.00;99371.78;5114478;28;20470;-39
2024/04/01 06:24:52;;;;;;;2.30;1.38;;;;;;;8.73;100.00;99373.38;5114798;28;20449;-39
2024/04/01 06:27:18;;;;;;;1.40;1.07;;;;;;;8.74;100.00;99377.72;5114878;28;20038;-39
2024/04/01 06:29:43;;;;;;;1.50;1.20;;;;;;;8.74;100.00;99364.25;5114368;28;20254;-39
2024/04/01 06:32:08;;;;;;;2.27;1.27;;;;;;;8.79;100.00;99368.88;5113827;28;20508;-39
2024/04/01 06:34:34;;;;;;;3.00;0.97;;;;;;;8.78;100.00;99368.03;5114068;28;20040;-39
2024/04/01 06:36:59;;;;;;;2.47;1.50;;;;;;;8.74;100.00;99351.59;5114726;28;20034;-39
2024/04/01 06:39:24;;;;;;;3.17;1.20;;;;;;;8.81;100.00;99367.53;5113984;28;20023;-39
2024/04/01 06:41:50;;;;;;;1.70;1.47;;;;;;;8.84;100.00;99368.94;5114233;28;20045;-39
2024/04/01 06:44:16;;;;;;;1.67;1.10;;;;;;;8.86;100.00;99377.56;5114100;28;20438;-39
2024/04/01 06:46:41;;;;;;;1.80;1.30;;;;;;;8.87;100.00;99377.31;5113949;28;20265;-39
2024/04/01 06:49:06;;;;;;;3.83;1.42;;;;;;;8.89;100.00;99383.28;5113612;28;20452;-40
2024/04/01 06:51:32;;;;;;;1.70;1.30;;;;;;;8.90;100.00;99389.47;5113610;28;20023;-39
2024/04/01 06:53:57;;;;;;;2.93;1.20;;;;;;;8.91;100.00;99394.59;5113266;28;20405;-39
2024/04/01 06:56:23;;;;;;;2.05;1.13;;;;;;;8.94;100.00;99394.09;5113360;28;20766;-39
2024/04/01 06:58:48;;;;;;;2.20;1.40;;;;;;;8.90;100.00;99384.88;5113344;28;20024;-39
2024/04/01 07:01:14;;;;;;;2.10;1.43;;;;;;;8.87;100.00;99380.00;5113070;28;20076;-39
2024/04/01 07:03:39;;;;;;;1.63;1.27;;;;;;;8.86;100.00;99383.75;5113241;28;20272;-39
2024/04/01 07:06:05;;;;;;;3.03;1.60;;;;;;;8.86;100.00;99381.06;5112891;28;20024;-39
2024/04/01 07:08:30;;;;;;;5.30;1.60;;;;;;;8.85;100.00;99379.44;5113749;28;20039;-40
2024/04/01 07:10:55;;;;;;;2.23;1.40;;;;;;;8.99;100.00;99404.94;5113568;28;20028;-39
2024/04/01 07:13:21;;;;;;;2.87;1.50;;;;;;;8.99;100.00;99406.81;5113343;28;20028;-39
2024/04/01 07:15:46;;;;;;;2.43;1.53;;;;;;;8.93;100.00;99397.03;5114983;28;20286;-39
2024/04/01 07:18:11;;;;;;;1.90;1.50;;;;;;;9.00;100.00;99411.94;5117309;28;20046;-39
2024/04/01 07:20:37;;;;;;;2.70;1.50;;;;;;;8.93;100.00;99407.81;5117665;28;20375;-39
2024/04/01 07:23:02;;;;;;;3.90;1.70;;;;;;;8.93;100.00;99414.03;5117254;28;20024;-39
2024/04/01 07:25:27;;;;;;;3.03;1.80;;;;;;;9.02;100.00;99422.47;5117799;28;20032;-39
2024/04/01 07:27:53;;;;;;;3.03;1.97;;;;;;;8.97;100.00;99419.72;5117158;28;20595;-39
2024/04/01 07:30:18;;;;;;;2.20;1.90;;;;;;;8.96;100.00;99418.91;5117070;28;20476;-39
2024/04/01 07:32:43;;;;;;;2.58;1.88;;;;;;;9.02;100.00;99434.06;5117092;28;20099;-39
2024/04/01 07:35:11;;;;;;;2.30;2.10;;;;;;;9.03;100.00;99430.31;5117167;28;20502;-39
2024/04/01 07:37:36;;;;;;;3.03;2.05;;;;;;;8.99;100.00;99418.41;5116529;28;20027;-39
2024/04/01 07:40:02;;;;;;;2.58;2.38;;;;;;;8.99;100.00;99423.00;5117234;28;20039;-39
2024/04/01 07:42:28;;;;;;;3.00;2.33;;;;;;;9.09;100.00;99430.38;5116820;28;20534;-38
2024/04/01 07:44:53;;;;;;;4.03;2.22;;;;;;;9.03;100.00;99426.81;5116840;28;20028;-40
2024/04/01 07:47:19;;;;;;;4.47;2.20;;;;;;;9.12;100.00;99444.13;5116540;28;20027;-40
2024/04/01 07:49:47;;;;;;;2.88;2.00;;;;;;;9.14;100.00;99441.19;5117041;28;20031;-40
2024/04/01 07:52:13;;;;;;;2.40;2.00;;;;;;;9.17;100.00;99444.19;5117127;28;20085;-40
2024/04/01 07:54:39;;;;;;;2.65;2.08;;;;;;;9.16;100.00;99445.25;5116848;28;20047;-40
2024/04/01 07:57:04;;;;;;;2.60;2.22;;;;;;;9.22;100.00;99454.19;5116552;28;20027;-39
2024/04/01 07:59:30;;;;;;;3.53;2.22;;;;;;;9.23;100.00;99448.56;5117173;28;20058;-39
2024/04/01 08:01:56;;;;;;;3.13;2.10;;;;;;;9.28;100.00;99447.81;5116210;28;20435;-39
2024/04/01 08:04:25;;;;;;;2.88;2.35;;;;;;;9.26;100.00;99445.34;5117525;28;20051;-39
2024/04/01 08:06:50;;;;;;;6.10;2.50;;;;;;;9.32;100.00;99469.66;5116759;28;20072;-39
2024/04/01 08:09:16;;;;;;;3.63;2.87;;;;;;;9.28;100.00;99464.00;5117376;28;20024;-38
2024/04/01 08:11:41;;;;;;;2.45;2.10;;;;;;;9.31;100.00;99468.03;5117315;28;20265;-39
2024/04/01 08:14:07;;;;;;;7.00;2.23;;;;;;;9.35;100.00;99472.66;5116870;28;20484;-39
2024/04/01 08:16:32;;;;;;;3.53;2.40;;;;;;;9.37;100.00;99478.66;5116951;28;20289;-39
2024/04/01 08:18:57;;;;;;;4.18;2.60;;;;;;;9.40;100.00;99486.22;5117134;28;20027;-38
2024/04/01 08:21:23;;;;;;;4.33;2.93;;;;;;;9.34;100.00;99472.94;5116528;28;20034;-39
2024/04/01 08:23:49;;;;;;;3.50;2.73;;;;;;;9.44;100.00;99495.41;5116527;28;20110;-39
2024/04/01 08:26:14;;;;;;;;;;;;;;;9.59;100.00;99502.03;5097979;28;20039;-39
2024/04/01 08:28:39;;;;;;;3.65;3.28;;;;;;;9.45;100.00;99488.94;5117269;28;19908;-38
2024/04/01 08:31:05;;;;;;;4.23;3.53;;;;;;;9.53;100.00;99493.06;5115989;28;20467;-38
2024/04/01 08:33:31;;;;;;;5.57;3.47;;;;;;;9.57;100.00;99504.19;5115919;28;20342;-39
2024/04/01 08:35:57;;;;;;;4.03;3.27;;;;;;;9.62;100.00;99517.72;5116206;28;20077;-39
2024/04/01 08:38:22;;;;;;;3.47;3.10;;;;;;;9.60;100.00;99511.75;5116790;28;20032;-39
2024/04/01 08:40:56;;;;;;;3.65;3.30;;;;;;;9.72;100.00;99534.00;5116500;28;20023;-39
2024/04/01 08:43:39;;;;;;;3.35;2.88;;;;;;;9.77;100.00;99528.63;5116132;28;20050;-39
2024/04/01 08:46:05;;;;;;;3.50;3.15;;;;;;;9.80;100.00;99537.00;5115837;28;20472;-39
2024/04/01 08:48:31;;;;;;;2.88;2.65;;;;;;;9.90;100.00;99546.28;5115689;28;20023;-39
2024/04/01 08:51:02;;;;;;;4.60;2.85;;;;;;;9.95;100.00;99541.72;5116805;28;20063;-39
2024/04/01 08:53:49;;;;;;;3.50;2.40;;;;;;;10.00;100.00;99536.38;5115500;28;20027;-39
2024/04/01 08:56:15;;;;;;;4.53;2.70;;;;;;;9.97;100.00;99547.69;5116711;28;20114;-39
2024/04/01 08:58:41;;;;;;;4.85;2.45;;;;;;;9.94;100.00;99553.59;5115898;28;20026;-39
2024/04/01 09:01:07;;;;;;;3.40;2.30;;;;;;;9.83;100.00;99541.09;5116350;28;20028;-40
2024/04/01 09:03:32;;;;;;;2.95;2.28;;;;;;;9.91;100.00;99550.63;5115794;28;20464;-38
2024/04/01 09:05:58;;;;;;;3.10;2.50;;;;;;;9.89;100.00;99553.56;5115738;28;20476;-39
2024/04/01 09:08:24;;;;;;;3.15;2.70;;;;;;;9.86;100.00;99559.50;5115556;28;20460;-39
2024/04/01 09:10:53;;;;;;;3.55;2.58;;;;;;;9.81;100.00;99564.84;5115872;28;20023;-39
2024/04/01 09:13:22;;;;;;;4.63;2.65;;;;;;;9.77;100.00;99563.72;5115428;28;20030;-39
2024/04/01 09:15:48;;;;;;;4.32;2.63;;;;;;;9.73;100.00;99562.63;5115431;28;20126;-39
2024/04/01 09:18:15;;;;;;;2.53;2.20;;;;;;;9.76;100.00;99578.28;5115793;28;20036;-40
2024/04/01 09:20:41;;;;;;;5.25;2.72;;;;;;;9.73;100.00;99576.13;5115492;28;20023;-40
2024/04/01 09:23:07;;;;;;;3.47;2.60;;;;;;;9.71;100.00;99570.13;5115096;28;20027;-40
2024/04/01 09:25:33;;;;;;;;;;;;;;;9.79;100.00;99573.19;5115449;28;20023;-38
2024/04/01 09:27:58;;;;;;;4.05;3.08;;;;;;;9.64;100.00;99577.63;5115910;28;19914;-40
2024/04/01 09:30:24;;;;;;;4.43;3.33;;;;;;;9.59;100.00;99573.00;5115138;28;20031;-40
2024/04/01 09:32:50;;;;;;;4.55;3.42;;;;;;;9.56;100.00;99570.81;5115809;28;20023;-38
2024/04/01 09:35:16;;;;;;;4.80;3.40;;;;;;;9.60;100.00;99579.22;5115109;28;20027;-39
2024/04/01 09:37:42;;;;;;;4.35;3.53;;;;;;;9.59;100.00;99578.41;5114959;28;20028;-39
2024/04/01 09:40:08;;;;;;;6.07;3.92;;;;;;;9.53;100.00;99574.84;5115352;28;20033;-39
2024/04/01 09:42:34;;;;;;;6.35;4.40;;;;;;;9.64;100.00;99586.56;5114940;28;20085;-39
2024/04/01 09:45:00;;;;;;;6.72;4.50;;;;;;;9.62;100.00;99588.69;5115492;28;20028;-39
2024/04/01 09:47:26;;;;;;;5.07;4.53;;;;;;;9.65;100.00;99596.28;5114931;28;20024;-40
2024/04/01 09:49:52;;;;;;;4.75;4.35;;;;;;;9.68;100.00;99601.16;5115130;28;20118;-40
2024/04/01 09:52:17;;;;;;;;;;;;;;;9.81;100.00;99597.25;5115183;28;20459;-40
2024/04/01 09:54:49;;;;;;;5.65;4.68;;;;;;;9.74;100.00;99596.63;5114660;28;20006;-40
2024/04/01 09:57:48;;;;;;;5.70;5.10;;;;;;;9.77;100.00;99596.13;5114798;28;20076;-39
2024/04/01 10:00:15;;;;;;;5.57;5.00;;;;;;;9.79;100.00;99600.19;5115517;28;20454;-39
2024/04/01 10:03:05;;;;;;;5.97;5.38;;;;;;;9.77;100.00;99590.72;5114618;28;20027;-39
2024/04/01 10:06:06;;;;;;;6.22;5.03;;;;;;;9.89;100.00;99606.75;5114779;28;20494;-39
2024/04/01 10:08:42;;;;;;;6.90;5.25;;;;;;;9.94;100.00;99604.09;5114732;28;20020;-39
2024/04/01 10:11:23;;;;;;;6.55;5.55;;;;;;;9.89;100.00;99604.06;5114790;28;20148;-39
2024/04/01 10:14:16;;;;;;;6.07;5.13;;;;;;;9.98;100.00;99619.53;5114091;28;20080;-39
2024/04/01 10:17:06;;;;;;;8.02;6.05;;;;;;;10.01;100.00;99610.94;5114647;28;20127;-40
2024/04/01 10:19:51;;;;;;;6.55;5.20;;;;;;;10.06;100.00;99621.78;5114785;28;20111;-38
2024/04/01 10:22:50;;;;;;;5.43;4.72;;;;;;;10.12;100.00;99625.34;5114797;28;20035;-39
2024/04/01 10:25:42;;;;;;;5.78;4.53;;;;;;;10.07;100.00;99614.47;5114263;28;20028;-39
2024/04/01 10:28:17;;;;;;;6.93;4.85;;;;;;;10.21;100.00;99623.78;5115223;28;20027;-39
2024/04/01 10:31:06;;;;;;;8.30;5.40;;;;;;;10.24;100.00;99630.56;5113821;28;20026;-39
2024/04/01 10:34:04;;;;;;;7.78;4.97;;;;;;;10.26;100.00;99623.84;5114513;28;20023;-39
2024/04/01 10:36:47;;;;;;;6.38;4.70;;;;;;;10.20;100.00;99618.63;5114350;28;20035;-40
2024/04/01 10:39:33;;;;;;;7.53;4.75;;;;;;;10.22;100.00;99619.19;5113661;28;20063;-39
2024/04/01 10:42:20;;;;;;;6.93;4.00;;;;;;;10.29;100.00;99627.91;5114242;28;20032;-39
2024/04/01 10:44:58;;;;;;;7.63;3.88;;;;;;;10.26;100.00;99634.66;5114734;28;20272;-39
2024/04/01 10:47:57;;;;;;;5.35;4.07;;;;;;;10.31;100.00;99640.09;5113826;28;20384;-39
2024/04/01 10:50:34;;;;;;;6.65;3.72;;;;;;;10.34;100.00;99636.06;5114505;28;20028;-39
2024/04/01 10:53:08;;;;;;;7.40;4.05;;;;;;;10.22;100.00;99620.00;5114004;28;20023;-39
2024/04/01 10:56:02;;;;;;;5.25;4.05;;;;;;;10.42;100.00;99638.28;5114328;28;20047;-39
2024/04/01 10:58:31;;;;;;;6.00;3.97;;;;;;;10.42;100.00;99641.00;5077509;28;20375;-39
2024/04/01 11:01:19;;;;;;;7.75;4.20;;;;;;;10.46;100.00;99644.00;5114214;28;20040;-39
2024/04/01 11:03:44;;;;;;;7.45;3.72;;;;;;;10.52;100.00;99651.06;5113627;28;20028;-39
2024/04/01 11:06:24;;;;;;;5.60;3.87;;;;;;;10.57;100.00;99661.91;5114180;28;20038;-38
2024/04/01 11:08:52;;;;;;;5.72;3.95;;;;;;;10.64;100.00;99670.63;5113720;28;20472;-39
2024/04/01 11:11:47;;;;;;;7.30;3.88;;;;;;;10.69;100.00;99669.84;5113988;28;20081;-39
2024/04/01 11:14:15;;;;;;;8.52;3.75;;;;;;;10.77;100.00;99669.34;5113231;28;20032;-39
2024/04/01 11:16:44;;;;;;;7.70;3.78;;;;;;;10.83;100.00;99684.53;5114095;28;20371;-38
2024/04/01 11:19:22;;;;;;;5.75;3.30;;;;;;;10.91;100.00;99691.34;5114369;28;20034;-39
2024/04/01 11:21:52;;;;;;;6.18;3.20;;;;;;;10.91;100.00;99691.34;5113493;28;20036;-39
2024/04/01 11:24:57;;;;;;;5.47;3.08;;;;;;;11.05;100.00;99692.50;5113473;28;20115;-39
2024/04/01 11:27:44;;;;;;;5.50;2.80;;;;;;;11.14;100.00;99699.06;5113484;28;20471;-39
2024/04/01 11:30:25;;;;;;;3.97;2.97;;;;;;;11.20;100.00;99708.81;5113200;28;20024;-38
2024/04/01 11:32:57;;;;;;;7.57;3.05;;;;;;;11.26;100.00;99704.25;5113089;28;20111;-39
2024/04/01 11:35:28;;;;;;;4.70;2.67;;;;;;;11.31;100.00;99706.97;5113355;28;20028;-39
2024/04/01 11:38:19;;;;;;;3.80;2.33;;;;;;;11.39;100.00;99711.91;5113416;28;20032;-39